Time;durP1;ratioP1;P1;durP2;ratioP2;P2;SDS_P1;SDS_P2;PMS_P1;PMS_P2;Temp;Humidity;BMP_temperature;BMP_pressure;BME280_temperature;BME280_humidity;BME280_pressure;Samples;Min_cycle;Max_cycle;Signal;HPM_P1;HPM_P2
2022/01/02 00:00:24;;;;;;;;;23.00;19.00;;;;;6.54;100.00;100458.00;6278418;20;3568055;-40
2022/01/02 00:03:02;;;;;;;;;22.50;18.00;;;;;6.43;100.00;100468.16;6290222;20;2483577;-40
2022/01/02 00:05:32;;;;;;;;;21.00;19.00;;;;;6.07;100.00;100475.50;6282672;20;3570060;-40
2022/01/02 00:08:11;;;;;;;;;29.00;23.00;;;;;6.18;100.00;100462.69;6282240;20;2844054;-40
2022/01/02 00:10:59;;;;;;;;;27.00;23.50;;;;;6.19;100.00;100464.47;6280735;20;2487991;-40
2022/01/02 00:13:36;;;;;;;;;21.00;21.00;;;;;6.00;100.00;100460.59;6277696;20;2498152;-41
2022/01/02 00:16:07;;;;;;;;;22.33;21.33;;;;;6.03;100.00;100449.84;6280841;20;3573170;-41
2022/01/02 00:18:39;;;;;;;;;22.50;22.00;;;;;6.16;100.00;100451.19;6280483;20;2498223;-40
2022/01/02 00:21:08;;;;;;;;;28.00;22.00;;;;;6.21;100.00;100453.72;6277552;20;2500342;-41
2022/01/02 00:23:59;;;;;;;;;27.50;21.00;;;;;5.95;100.00;100452.75;6279467;20;2498347;-40
2022/01/02 00:26:40;;;;;;;;;29.00;24.00;;;;;6.26;100.00;100452.66;6282190;20;2846104;-41
2022/01/02 00:29:11;;;;;;;;;28.00;27.00;;;;;6.36;100.00;100453.25;6283087;20;2846094;-42
2022/01/02 00:31:41;;;;;;;;;30.00;27.00;;;;;6.40;100.00;100459.34;6279024;20;2838841;-40
2022/01/02 00:34:11;;;;;;;;;28.00;27.50;;;;;6.59;100.00;100455.19;6280100;20;2500251;-41
2022/01/02 00:36:40;;;;;;;;;27.50;26.50;;;;;6.62;100.00;100457.75;6279301;20;2841013;-40
2022/01/02 00:39:09;;;;;;;;;24.00;24.00;;;;;6.74;100.00;100465.34;6282230;20;2849317;-40
2022/01/02 00:41:48;;;;;;;;;26.00;23.00;;;;;6.66;100.00;100466.50;6274738;20;2500266;-43
2022/01/02 00:45:02;;;;;;;;;34.50;28.50;;;;;6.69;100.00;100466.41;6278388;20;2855444;-42
2022/01/02 00:48:12;;;;;;;;;53.00;39.00;;;;;6.84;100.00;100470.38;6281530;20;2871277;-42
2022/01/02 00:50:54;;;;;;;;;47.33;38.33;;;;;6.80;100.00;100461.59;6309086;20;2867000;-40
2022/01/02 00:53:26;;;;;;;;;49.67;39.00;;;;;6.72;100.00;100466.34;6309395;20;2874433;-40
2022/01/02 00:55:57;;;;;;;;;49.67;39.00;;;;;6.76;100.00;100462.63;6308457;20;3621041;-40
2022/01/02 00:58:51;;;;;;;;;45.00;38.00;;;;;6.78;100.00;100464.31;6310004;20;3604514;-40
2022/01/02 01:01:34;;;;;;;;;31.00;28.50;;;;;6.58;100.00;100465.00;6310410;20;2852342;-41
2022/01/02 01:04:07;;;;;;;;;35.00;30.67;;;;;6.69;100.00;100456.63;6278439;20;2865946;-40
2022/01/02 01:06:39;;;;;;;;;51.00;37.00;;;;;6.90;100.00;100457.69;6309867;20;2764861;-41
2022/01/02 01:09:07;;;;;;;;;45.00;36.00;;;;;6.94;100.00;100461.13;6278891;20;2838926;-40
2022/01/02 01:11:36;;;;;;;;;42.00;36.00;;;;;6.89;100.00;100463.94;6282560;20;3607572;-41
2022/01/02 01:14:06;;;;;;;;;39.00;36.33;;;;;6.95;100.00;100457.53;6277943;20;3615943;-42
2022/01/02 01:16:35;;;;;;;;;37.00;33.33;;;;;6.96;100.00;100453.94;6312988;20;3591921;-43
2022/01/02 01:19:05;;;;;;;;;45.33;38.00;;;;;6.95;100.00;100458.41;6278672;20;3611740;-41
2022/01/02 01:21:33;;;;;;;;;33.00;31.67;;;;;6.70;100.00;100458.38;6310688;20;3583612;-41
2022/01/02 01:24:02;;;;;;;;;35.00;29.50;;;;;6.87;100.00;100454.25;6278629;20;2857556;-40
2022/01/02 01:26:32;;;;;;;;;36.33;33.67;;;;;6.86;100.00;100460.53;6280429;20;2872173;-40
2022/01/02 01:29:01;;;;;;;;;31.00;28.50;;;;;6.75;100.00;100456.41;6312111;20;2840894;-40
2022/01/02 01:31:29;;;;;;;;;32.50;28.50;;;;;6.74;100.00;100452.00;6277838;20;2842941;-41
2022/01/02 01:33:58;;;;;;;;;33.00;28.00;;;;;6.73;100.00;100457.38;6281980;20;2854446;-41
2022/01/02 01:36:28;;;;;;;;;23.40;16.40;;;;;5.74;100.00;100454.25;6303949;20;2820057;-42
2022/01/02 01:38:56;;;;;;;;;27.00;23.00;;;;;5.16;100.00;100445.22;6278976;20;2500272;-41
2022/01/02 01:41:34;;;;;;;;;32.50;24.00;;;;;4.95;100.00;100452.88;6278457;20;2858632;-41
2022/01/02 01:44:20;;;;;;;;;26.00;22.00;;;;;5.35;100.00;100440.28;6280409;20;2841972;-41
2022/01/02 01:46:51;;;;;;;;;23.50;21.00;;;;;5.73;100.00;100445.34;6279497;20;2838001;-40
2022/01/02 01:49:27;;;;;;;;;26.50;20.00;;;;;4.62;100.00;100436.84;6283801;20;2831583;-41
2022/01/02 01:51:56;;;;;;;;;20.00;18.00;;;;;4.44;100.00;100431.13;6280543;20;2837812;-41
2022/01/02 01:54:25;;;;;;;;;22.33;19.00;;;;;4.34;100.00;100435.78;6279442;20;3549278;-41
2022/01/02 01:56:54;;;;;;;;;23.50;17.50;;;;;4.40;100.00;100433.00;6285237;20;2831519;-40
2022/01/02 01:59:23;;;;;;;;;25.33;21.67;;;;;4.39;100.00;100431.22;6280692;20;3569067;-40
2022/01/02 02:01:52;;;;;;;;;22.00;19.00;;;;;4.29;100.00;100424.38;6285301;20;2824350;-40
2022/01/02 02:04:20;;;;;;;;;25.00;20.00;;;;;4.23;100.00;100429.84;6282025;20;2494040;-40
2022/01/02 02:06:52;;;;;;;;;28.00;26.00;;;;;4.30;100.00;100428.81;6284960;20;2846235;-41
2022/01/02 02:09:23;;;;;;;;;27.00;25.00;;;;;4.45;100.00;100425.78;6282642;20;2500269;-40
2022/01/02 02:11:58;;;;;;;;;33.00;27.50;;;;;4.54;100.00;100430.84;6283590;20;2856562;-41
2022/01/02 02:14:27;;;;;;;;;37.50;35.00;;;;;5.06;100.00;100428.63;6284266;20;2859651;-40
2022/01/02 02:16:56;;;;;;;;;33.50;29.00;;;;;5.42;100.00;100434.69;6283746;20;2846262;-40
2022/01/02 02:19:25;;;;;;;;;30.00;27.00;;;;;5.53;100.00;100431.75;6285282;20;2848347;-41
2022/01/02 02:21:53;;;;;;;;;26.00;26.00;;;;;5.55;100.00;100431.69;6282816;20;2500394;-40
2022/01/02 02:24:21;;;;;;;;;30.00;26.00;;;;;5.59;100.00;100433.38;6280721;20;2500388;-41
2022/01/02 02:26:50;;;;;;;;;29.50;26.50;;;;;5.77;100.00;100437.28;6285209;20;2850240;-40
2022/01/02 02:29:18;;;;;;;;;31.00;28.00;;;;;5.86;100.00;100437.88;6285774;20;2843995;-41
2022/01/02 02:31:47;;;;;;;;;27.50;27.00;;;;;5.82;100.00;100441.56;6282607;20;2840883;-40
2022/01/02 02:34:17;;;;;;;;;36.00;27.00;;;;;5.80;100.00;100442.53;6283032;20;2855466;-40
2022/01/02 02:36:46;;;;;;;;;33.00;26.50;;;;;5.71;100.00;100440.97;6314019;20;2859684;-40
2022/01/02 02:39:15;;;;;;;;;30.00;26.50;;;;;5.73;100.00;100429.38;6285017;20;2839829;-41
2022/01/02 02:41:45;;;;;;;;;31.00;27.00;;;;;5.68;100.00;100433.09;6283050;20;2842995;-41
2022/01/02 02:44:28;;;;;;;;;30.00;27.50;;;;;5.64;100.00;100436.78;6282830;20;2500430;-40
2022/01/02 02:49:44;;;;;;;;;32.50;26.50;;;;;5.61;100.00;100434.19;6283940;20;2846303;-42
2022/01/02 02:52:39;;;;;;;;;33.00;29.00;;;;;5.42;100.00;100429.38;6283584;20;2862777;-43
2022/01/02 02:55:09;;;;;;;;;41.33;31.67;;;;;5.24;100.00;100424.59;6284610;20;2881581;-40
2022/01/02 02:57:39;;;;;;;;;40.00;38.67;;;;;4.91;100.00;100427.25;6314428;20;3613761;-41
2022/01/02 03:00:10;;;;;;;;;45.67;34.33;;;;;4.30;100.00;100424.34;6313950;20;3617972;-41
2022/01/02 03:02:40;;;;;;;;;39.67;33.00;;;;;4.38;100.00;100422.38;6314525;20;3597199;-40
2022/01/02 03:05:10;;;;;;;;;34.00;31.33;;;;;4.62;100.00;100423.56;6314162;20;2857762;-41
2022/01/02 03:07:39;;;;;;;;;34.00;34.00;;;;;4.93;100.00;100412.13;6313425;20;2858426;-40
2022/01/02 03:10:10;;;;;;;;;25.67;23.67;;;;;5.18;100.00;100411.44;6312712;20;3562777;-41
2022/01/02 03:12:39;;;;;;;;;36.50;29.00;;;;;5.72;100.00;100421.44;6281675;20;2854407;-41
2022/01/02 03:15:08;;;;;;;;;32.50;27.50;;;;;5.41;100.00;100413.47;6284440;20;2851282;-40
2022/01/02 03:17:36;;;;;;;;;27.00;24.00;;;;;5.21;100.00;100414.00;6280006;20;2841915;-40
2022/01/02 03:20:06;;;;;;;;;25.50;23.00;;;;;5.27;100.00;100414.72;6281220;20;2828461;-41
2022/01/02 03:22:34;;;;;;;;;25.00;24.00;;;;;5.09;100.00;100422.34;6280666;20;2500365;-41
2022/01/02 03:25:03;;;;;;;;;29.00;26.00;;;;;5.03;100.00;100418.94;6284593;20;2852437;-40
2022/01/02 03:27:33;;;;;;;;;29.00;26.50;;;;;5.01;100.00;100410.13;6284310;20;2840015;-40
2022/01/02 03:30:06;;;;;;;;;29.50;28.00;;;;;4.84;100.00;100415.00;6283371;20;2843110;-40
2022/01/02 03:32:34;;;;;;;;;31.50;28.00;;;;;4.85;100.00;100414.13;6282580;20;2847187;-41
2022/01/02 03:35:05;;;;;;;;;36.00;28.00;;;;;4.79;100.00;100408.94;6282783;20;2861805;-43
2022/01/02 03:37:35;;;;;;;;;35.00;31.50;;;;;4.96;100.00;100412.03;6312956;20;2848212;-40
2022/01/02 03:40:09;;;;;;;;;45.00;37.00;;;;;4.85;100.00;100419.44;6279358;20;2864881;-40
2022/01/02 03:42:39;;;;;;;;;41.67;38.33;;;;;4.78;100.00;100413.38;6314950;20;3621059;-41
2022/01/02 03:45:09;;;;;;;;;43.67;36.00;;;;;4.77;100.00;100408.13;6282573;20;3620152;-39
2022/01/02 03:47:38;;;;;;;;;42.00;35.67;;;;;4.50;100.00;100415.91;6316038;20;3606463;-40
2022/01/02 03:50:08;;;;;;;;;31.00;29.00;;;;;4.15;100.00;100422.91;6283143;20;2852428;-41
2022/01/02 03:52:37;;;;;;;;;35.00;32.00;;;;;3.70;100.00;100420.41;6282702;20;2850397;-40
2022/01/02 03:55:08;;;;;;;;;40.00;33.67;;;;;3.70;100.00;100420.41;6282468;20;2861883;-42
2022/01/02 03:57:38;;;;;;;;;36.00;32.00;;;;;3.90;100.00;100414.66;6307711;20;2848286;-42
2022/01/02 04:00:12;;;;;;;;;30.00;27.00;;;;;4.03;100.00;100417.00;6283376;20;2854559;-41
2022/01/02 04:02:42;;;;;;;;;33.00;28.00;;;;;4.12;100.00;100412.38;6282212;20;2854424;-42
2022/01/02 04:05:14;;;;;;;;;24.50;23.00;;;;;3.95;100.00;100409.25;6282203;20;2827020;-42
2022/01/02 04:07:43;;;;;;;;;26.50;25.00;;;;;3.81;100.00;100411.31;6280867;20;2500253;-42
2022/01/02 04:10:15;;;;;;;;;32.50;28.50;;;;;3.54;100.00;100408.34;6279083;20;2500287;-42
2022/01/02 04:12:44;;;;;;;;;47.50;40.50;;;;;3.34;100.00;100410.53;6282823;20;2854852;-42
2022/01/02 04:15:15;;;;;;;;;62.00;47.00;;;;;3.25;100.00;100404.53;6280019;20;2495128;-42
2022/01/02 04:17:44;;;;;;;;;53.33;43.00;;;;;3.34;100.00;100399.94;6278104;20;2872214;-42
2022/01/02 04:20:16;;;;;;;;;46.00;37.00;;;;;3.42;100.00;100400.63;6312330;20;2877453;-42
2022/01/02 04:22:46;;;;;;;;;51.00;37.67;;;;;3.23;100.00;100406.31;6309480;20;3634687;-42
2022/01/02 04:25:14;;;;;;;;;44.00;39.00;;;;;3.34;100.00;100405.25;6312527;20;2847192;-43
2022/01/02 04:27:43;;;;;;;;;46.00;40.00;;;;;3.49;100.00;100400.47;6282273;20;2857666;-41
2022/01/02 04:30:13;;;;;;;;;50.67;40.33;;;;;3.47;100.00;100401.41;6280797;20;3630468;-42
2022/01/02 04:32:42;;;;;;;;;41.00;30.00;;;;;3.55;100.00;100398.59;6313854;20;2850371;-42
2022/01/02 04:35:12;;;;;;;;;43.33;38.67;;;;;3.69;100.00;100401.84;6281004;20;2860646;-42
2022/01/02 04:37:42;;;;;;;;;44.00;38.67;;;;;3.53;100.00;100406.63;6312211;20;3618972;-42
2022/01/02 04:40:12;;;;;;;;;38.33;35.67;;;;;3.42;100.00;100408.59;6310447;20;2866986;-42
2022/01/02 04:42:42;;;;;;;;;46.00;39.00;;;;;3.38;100.00;100404.28;6312792;20;3617973;-43
2022/01/02 04:45:11;;;;;;;;;40.50;37.00;;;;;3.69;100.00;100412.47;6312063;20;2859716;-42
2022/01/02 04:47:40;;;;;;;;;44.50;35.00;;;;;3.64;100.00;100403.75;6280197;20;2864830;-41
2022/01/02 04:50:10;;;;;;;;;37.00;34.50;;;;;3.90;100.00;100408.47;6281571;20;2860833;-42
2022/01/02 04:52:39;;;;;;;;;37.67;31.67;;;;;3.84;100.00;100408.59;6281832;20;2852411;-42
2022/01/02 04:55:09;;;;;;;;;47.00;34.67;;;;;3.60;100.00;100405.56;6311392;20;3636695;-42
2022/01/02 04:57:39;;;;;;;;;42.00;32.33;;;;;3.64;100.00;100409.03;6312857;20;3614812;-42
2022/01/02 05:00:09;;;;;;;;;44.00;35.00;;;;;3.69;100.00;100408.03;6309471;20;2825281;-42
2022/01/02 05:02:38;;;;;;;;;39.00;32.50;;;;;3.30;100.00;100407.09;6280083;20;2849198;-41
2022/01/02 05:05:08;;;;;;;;;40.00;34.50;;;;;3.25;100.00;100401.00;6281185;20;2853489;-41
2022/01/02 05:07:37;;;;;;;;;44.50;38.50;;;;;2.97;100.00;100396.22;6280722;20;2861735;-42
2022/01/02 05:10:08;;;;;;;;;44.00;36.00;;;;;2.74;100.00;100388.72;6280797;20;2874256;-41
2022/01/02 05:12:37;;;;;;;;;41.50;34.50;;;;;2.86;100.00;100385.81;6312367;20;2883590;-42
2022/01/02 05:15:07;;;;;;;;;41.67;33.67;;;;;2.83;100.00;100379.72;6280116;20;2866066;-42
2022/01/02 05:17:37;;;;;;;;;42.33;34.33;;;;;2.82;100.00;100386.78;6307876;20;2878586;-41
2022/01/02 05:20:07;;;;;;;;;39.00;34.67;;;;;2.60;100.00;100391.59;6311470;20;2859772;-41
2022/01/02 05:22:36;;;;;;;;;34.50;30.50;;;;;2.61;100.00;100397.78;6310139;20;2850341;-42
2022/01/02 05:25:07;;;;;;;;;46.00;36.50;;;;;2.55;100.00;100389.94;6281037;20;2880698;-41
2022/01/02 05:27:36;;;;;;;;;43.67;38.00;;;;;2.56;100.00;100383.75;6311237;20;2870115;-41
2022/01/02 05:30:06;;;;;;;;;53.50;43.50;;;;;2.79;100.00;100378.00;6313917;20;2856628;-41
2022/01/02 05:32:35;;;;;;;;;51.50;43.50;;;;;2.91;100.00;100384.88;6284753;20;2858642;-41
2022/01/02 05:35:05;;;;;;;;;82.67;59.67;;;;;3.10;100.00;100390.69;6286406;20;3649351;-42
2022/01/02 05:37:34;;;;;;;;;42.67;37.00;;;;;3.07;100.00;100387.19;6316557;20;2857758;-41
2022/01/02 05:40:05;;;;;;;;;38.67;37.00;;;;;3.06;100.00;100396.06;6315411;20;2861807;-41
2022/01/02 05:42:35;;;;;;;;;42.67;35.33;;;;;3.23;100.00;100398.38;6315846;20;3609645;-41
2022/01/02 05:45:05;;;;;;;;;46.33;34.67;;;;;3.34;100.00;100407.88;6318026;20;3627430;-42
2022/01/02 05:47:38;;;;;;;;;69.00;52.00;;;;;3.26;100.00;100406.25;6313694;20;2886824;-41
2022/01/02 05:50:08;;;;;;;;;71.33;53.67;;;;;3.10;100.00;100391.56;6315774;20;3629416;-42
2022/01/02 05:52:37;;;;;;;;;59.50;47.50;;;;;3.17;100.00;100392.31;6317388;20;2862737;-42
2022/01/02 05:55:08;;;;;;;;;65.67;49.33;;;;;3.14;100.00;100393.25;6283840;20;2873191;-42
2022/01/02 05:57:37;;;;;;;;;62.00;50.00;;;;;2.68;100.00;100388.81;6317059;20;2864834;-41
2022/01/02 06:00:07;;;;;;;;;60.50;48.00;;;;;2.67;100.00;100383.53;6279977;20;2491974;-41
2022/01/02 06:02:37;;;;;;;;;59.33;43.00;;;;;2.76;100.00;100365.66;6285188;20;2869143;-41
2022/01/02 06:05:07;;;;;;;;;59.33;46.00;;;;;3.14;100.00;100374.69;6316373;20;2870163;-41
2022/01/02 06:07:36;;;;;;;;;56.67;44.00;;;;;3.02;100.00;100377.56;6313969;20;2873216;-41
2022/01/02 06:10:07;;;;;;;;;49.00;42.33;;;;;2.84;100.00;100378.78;6316175;20;2854469;-42
2022/01/02 06:12:37;;;;;;;;;51.00;43.33;;;;;2.58;100.00;100379.25;6314575;20;2875342;-43
2022/01/02 06:15:07;;;;;;;;;67.00;51.00;;;;;2.75;100.00;100377.19;6315426;20;2865960;-42
2022/01/02 06:17:36;;;;;;;;;69.00;56.33;;;;;3.16;100.00;100379.94;6313897;20;2873263;-41
2022/01/02 06:20:06;;;;;;;;;80.67;59.67;;;;;2.66;100.00;100377.38;6314845;20;3648181;-41
2022/01/02 06:22:36;;;;;;;;;67.33;54.00;;;;;2.62;100.00;100373.88;6316317;20;3621213;-41
2022/01/02 06:25:05;;;;;;;;;60.50;51.00;;;;;2.71;100.00;100369.31;6315132;20;2847210;-41
2022/01/02 06:27:35;;;;;;;;;54.00;43.00;;;;;2.67;100.00;100381.75;6284818;20;2872169;-42
2022/01/02 06:30:06;;;;;;;;;80.33;59.00;;;;;1.83;100.00;100381.38;6283487;20;3638845;-41
2022/01/02 06:32:35;;;;;;;;;71.50;52.00;;;;;1.37;100.00;100386.41;6316150;20;2878415;-41
2022/01/02 06:35:05;;;;;;;;;52.00;43.33;;;;;1.32;100.00;100389.13;6284463;20;2847165;-43
2022/01/02 06:37:35;;;;;;;;;74.33;56.67;;;;;1.30;100.00;100385.63;6314682;20;2892060;-42
2022/01/02 06:40:06;;;;;;;;;72.00;53.33;;;;;1.93;100.00;100388.28;6312316;20;3639886;-41
2022/01/02 06:42:35;;;;;;;;;72.50;58.00;;;;;1.69;100.00;100375.41;6313214;20;2864919;-41
2022/01/02 06:45:04;;;;;;;;;71.00;57.00;;;;;1.60;100.00;100367.59;6282799;20;2876314;-41
2022/01/02 06:47:34;;;;;;;;;77.00;58.00;;;;;1.77;100.00;100380.59;6282935;20;3651392;-41
2022/01/02 06:50:06;;;;;;;;;61.00;51.50;;;;;2.50;100.00;100383.81;6313491;20;2842012;-41
2022/01/02 06:52:35;;;;;;;;;62.00;44.00;;;;;2.64;100.00;100385.34;6282155;20;2871237;-41
2022/01/02 06:55:06;;;;;;;;;53.33;39.67;;;;;2.86;100.00;100388.47;6283361;20;3614184;-41
2022/01/02 06:57:36;;;;;;;;;52.00;40.33;;;;;2.71;100.00;100378.13;6315016;20;2875369;-42
2022/01/02 07:00:06;;;;;;;;;5.67;2.00;;;;;2.64;100.00;100392.44;6314399;20;3463792;-41
2022/01/02 07:02:35;;;;;;;;;40.50;32.00;;;;;2.58;100.00;100398.72;6316477;20;2860721;-41
2022/01/02 07:05:06;;;;;;;;;49.33;35.33;;;;;2.74;100.00;100396.66;6284557;20;3627444;-40
2022/01/02 07:07:46;;;;;;;;;51.00;41.67;;;;;2.50;100.00;100399.72;6314350;20;2863026;-40
2022/01/02 07:10:16;;;;;;;;;60.00;46.00;;;;;2.21;100.00;100398.44;6311871;20;2857599;-41
2022/01/02 07:12:46;;;;;;;;;70.67;51.33;;;;;1.62;100.00;100387.84;6283688;20;3632553;-41
2022/01/02 07:15:15;;;;;;;;;56.67;46.67;;;;;1.47;100.00;100383.63;6314394;20;3615883;-41
2022/01/02 07:17:44;;;;;;;;;37.50;37.50;;;;;1.38;100.00;100383.75;6312631;20;2852515;-41
2022/01/02 07:20:14;;;;;;;;;53.00;43.50;;;;;1.56;100.00;100395.00;6278476;20;2863900;-42
2022/01/02 07:22:42;;;;;;;;;61.00;47.00;;;;;1.97;100.00;100403.25;6282899;20;2861724;-41
2022/01/02 07:25:11;;;;;;;;;55.00;46.00;;;;;2.02;100.00;100397.84;6282588;20;2871077;-42
2022/01/02 07:27:40;;;;;;;;;63.00;49.00;;;;;2.36;100.00;100397.31;6283488;20;2875242;-41
2022/01/02 07:30:09;;;;;;;;;61.50;43.00;;;;;2.42;100.00;100400.75;6283318;20;2873213;-41
2022/01/02 07:32:40;;;;;;;;;51.33;41.33;;;;;2.23;100.00;100396.66;6284485;20;3624255;-41
2022/01/02 07:35:09;;;;;;;;;51.67;43.00;;;;;2.42;100.00;100402.50;6314091;20;2863867;-41
2022/01/02 07:37:39;;;;;;;;;51.00;40.00;;;;;2.47;100.00;100403.31;6314544;20;2867014;-41
2022/01/02 07:40:10;;;;;;;;;55.00;41.33;;;;;2.76;100.00;100396.63;6313064;20;3608544;-41
2022/01/02 07:42:39;;;;;;;;;64.33;47.00;;;;;2.99;100.00;100393.56;6314726;20;3623135;-42
2022/01/02 07:45:08;;;;;;;;;59.50;47.50;;;;;2.98;100.00;100394.47;6313005;20;2874284;-41
2022/01/02 07:47:39;;;;;;;;;62.33;43.67;;;;;2.93;100.00;100396.31;6281960;20;3635746;-41
2022/01/02 07:50:09;;;;;;;;;63.50;51.00;;;;;3.17;100.00;100393.19;6313650;20;2851426;-42
2022/01/02 07:52:38;;;;;;;;;66.50;51.50;;;;;3.09;100.00;100389.81;6282129;20;2864849;-41
2022/01/02 07:55:08;;;;;;;;;75.00;55.33;;;;;3.28;100.00;100388.53;6282995;20;3650259;-42
2022/01/02 07:57:38;;;;;;;;;78.00;60.67;;;;;3.61;100.00;100394.06;6312257;20;3635655;-42
2022/01/02 08:00:09;;;;;;;;;67.67;50.33;;;;;3.58;100.00;100387.91;6313380;20;3634628;-41
2022/01/02 08:02:39;;;;;;;;;90.67;66.33;;;;;3.93;100.00;100384.50;6314009;20;3652297;-41
2022/01/02 08:05:10;;;;;;;;;90.67;72.00;;;;;4.36;100.00;100373.69;6313310;20;3660658;-41
2022/01/02 08:07:41;;;;;;;;;84.67;64.33;;;;;4.53;100.00;100377.69;6313114;20;3644105;-42
2022/01/02 08:10:11;;;;;;;;;80.00;60.33;;;;;4.94;100.00;100384.59;6312143;20;3654400;-42
2022/01/02 08:12:41;;;;;;;;;73.33;54.33;;;;;5.24;100.00;100390.00;6314795;20;3637768;-43
2022/01/02 08:15:10;;;;;;;;;64.00;52.00;;;;;5.58;100.00;100386.31;6311918;20;2853367;-41
2022/01/02 08:17:39;;;;;;;;;97.67;75.33;;;;;5.82;100.00;100377.59;6279644;20;3688789;-41
2022/01/02 08:20:10;;;;;;;;;106.00;89.00;;;;;5.86;100.00;100373.91;6279574;20;3676476;-42
2022/01/02 08:22:40;;;;;;;;;81.00;62.67;;;;;5.91;100.00;100371.13;6279636;20;3625260;-42
2022/01/02 08:25:10;;;;;;;;;73.67;55.00;;;;;6.00;100.00;100359.31;6313999;20;3643976;-42
2022/01/02 08:27:40;;;;;;;;;73.00;59.00;;;;;6.00;100.00;100348.66;6280315;20;2877442;-43
2022/01/02 08:30:10;;;;;;;;;65.00;50.50;;;;;6.27;100.00;100353.09;6312338;20;2846121;-43
2022/01/02 08:32:39;;;;;;;;;42.67;37.67;;;;;6.40;100.00;100348.22;6281931;20;2852462;-42
2022/01/02 08:35:09;;;;;;;;;52.33;40.00;;;;;6.57;100.00;100358.31;6312386;20;3623128;-42
2022/01/02 08:37:39;;;;;;;;;49.33;43.00;;;;;6.62;100.00;100348.34;6312237;20;2865871;-45
2022/01/02 08:40:09;;;;;;;;;46.00;37.33;;;;;6.69;100.00;100352.56;6309426;20;2871191;-44
2022/01/02 08:42:38;;;;;;;;;44.00;38.00;;;;;6.93;100.00;100363.28;6313367;20;3596058;-40
2022/01/02 08:45:08;;;;;;;;;43.50;36.50;;;;;6.95;100.00;100356.09;6281033;20;2854747;-44
2022/01/02 08:47:37;;;;;;;;;46.67;37.00;;;;;7.02;100.00;100360.28;6283322;20;3617967;-42
2022/01/02 08:50:07;;;;;;;;;44.67;40.00;;;;;7.22;100.00;100363.09;6280093;20;3621091;-42
2022/01/02 08:52:35;;;;;;;;;47.33;40.33;;;;;7.23;100.00;100356.81;6316359;20;3613814;-44
2022/01/02 08:55:06;;;;;;;;;51.33;42.33;;;;;7.41;100.00;100362.41;6280991;20;2875456;-41
2022/01/02 08:57:35;;;;;;;;;81.00;60.67;;;;;7.41;100.00;100367.75;6312466;20;3647123;-44
2022/01/02 09:00:06;;;;;;;;;74.33;57.33;;;;;7.36;100.00;100361.72;6311090;20;3628427;-42
2022/01/02 09:02:36;;;;;;;;;70.67;53.33;;;;;7.46;100.00;100352.44;6311489;20;3622251;-42
2022/01/02 09:05:06;;;;;;;;;50.50;43.50;;;;;7.51;100.00;100339.75;6312892;20;2854624;-42
2022/01/02 09:07:36;;;;;;;;;62.50;50.50;;;;;7.54;100.00;100338.78;6285894;20;2869074;-42
2022/01/02 09:10:07;;;;;;;;;59.33;49.33;;;;;7.86;100.00;100337.50;6284687;20;2867142;-42
2022/01/02 09:12:36;;;;;;;;;55.00;44.67;;;;;7.69;100.00;100336.38;6317851;20;2850306;-42
2022/01/02 09:15:05;;;;;;;;;54.33;41.67;;;;;8.22;100.00;100326.25;6319060;20;3598189;-42
2022/01/02 09:17:35;;;;;;;;;54.33;41.00;;;;;8.31;100.00;100326.72;6280654;20;3624207;-44
2022/01/02 09:20:09;;;;;;;;;47.67;37.00;;;;;8.33;100.00;100335.56;6320953;20;3615844;-43
2022/01/02 09:22:39;;;;;;;;;38.67;35.33;;;;;8.59;100.00;100333.63;6287534;20;2845069;-44
2022/01/02 09:25:10;;;;;;;;;38.00;31.67;;;;;8.91;100.00;100334.88;6318980;20;3600221;-43
2022/01/02 09:27:41;;;;;;;;;39.00;33.00;;;;;9.05;100.00;100333.41;6287284;20;3604515;-43
2022/01/02 09:30:10;;;;;;;;;37.33;34.00;;;;;8.97;100.00;100337.28;6322939;20;3595073;-43
2022/01/02 09:32:40;;;;;;;;;31.00;31.00;;;;;9.21;100.00;100346.03;6290107;20;2855443;-42
2022/01/02 09:35:11;;;;;;;;;67.33;51.33;;;;;9.24;100.00;100336.97;6288335;20;2877415;-43
2022/01/02 09:37:40;;;;;;;;;50.33;43.33;;;;;9.01;100.00;100338.91;6321346;20;3604467;-42
2022/01/02 09:40:10;;;;;;;;;53.00;43.00;;;;;9.39;100.00;100332.72;6290453;20;2871097;-41
2022/01/02 09:42:40;;;;;;;;;45.33;40.33;;;;;9.45;100.00;100333.34;6292932;20;3589805;-42
2022/01/02 09:45:09;;;;;;;;;40.00;35.00;;;;;9.49;100.00;100331.38;6287339;20;2842036;-43
2022/01/02 09:47:38;;;;;;;;;37.33;34.67;;;;;9.71;100.00;100331.22;6288736;20;3573233;-45
2022/01/02 09:50:11;;;;;;;;;53.00;41.50;;;;;9.76;100.00;100331.00;6287413;20;2866230;-42
2022/01/02 09:52:41;;;;;;;;;48.00;39.33;;;;;9.50;100.00;100325.06;6286552;20;2868070;-43
2022/01/02 09:55:10;;;;;;;;;41.67;35.67;;;;;9.81;100.00;100319.09;6319022;20;2852339;-43
2022/01/02 09:57:45;;;;;;;;;37.00;33.33;;;;;9.53;100.00;100314.22;6322487;20;3621061;-43
2022/01/02 10:00:16;;;;;;;;;38.67;31.33;;;;;9.23;100.00;100317.34;6289236;20;3608540;-41
2022/01/02 10:03:01;;;;;;;;;30.00;26.67;;;;;9.61;100.00;100319.19;6290861;20;3580476;-42
2022/01/02 10:05:59;;;;;;;;;32.00;31.00;;;;;9.86;100.00;100300.97;6286795;20;3596156;-43
2022/01/02 10:08:31;;;;;;;;;31.67;26.00;;;;;10.18;100.00;100311.94;6320196;20;3595076;-42
2022/01/02 10:11:15;;;;;;;;;39.50;34.00;;;;;10.69;97.63;100299.53;6284378;20;2849283;-42
2022/01/02 10:13:53;;;;;;;;;17.33;16.00;;;;;10.63;96.38;100297.16;6288505;20;3563824;-43
2022/01/02 10:16:34;;;;;;;;;21.00;21.00;;;;;10.98;94.87;100291.75;6288568;20;2832579;-42
2022/01/02 10:19:29;;;;;;;;;25.50;22.00;;;;;11.07;93.25;100296.63;6288273;20;2846067;-43
2022/01/02 10:22:06;;;;;;;;;23.00;22.00;;;;;11.17;93.05;100289.81;6285892;20;2846083;-42
2022/01/02 10:24:47;;;;;;;;;23.00;20.50;;;;;11.37;91.43;100282.44;6289428;20;2841975;-43
2022/01/02 10:27:21;;;;;;;;;22.50;19.50;;;;;11.09;91.33;100281.28;6286514;20;2833744;-43
2022/01/02 10:29:58;;;;;;;;;21.50;20.50;;;;;11.20;91.61;100278.00;6288145;20;2832696;-43
2022/01/02 10:32:39;;;;;;;;;15.67;13.67;;;;;11.21;90.47;100275.22;6288080;20;3529509;-42
2022/01/02 10:35:22;;;;;;;;;18.67;17.33;;;;;11.54;89.28;100273.47;6286599;20;3547253;-43
2022/01/02 10:38:00;;;;;;;;;21.33;17.00;;;;;11.60;88.18;100255.13;6284829;20;3567935;-41
2022/01/02 10:40:38;;;;;;;;;63.00;49.50;;;;;11.84;87.34;100254.69;6288465;20;2860675;-42
2022/01/02 10:43:31;;;;;;;;;13.67;13.67;;;;;11.69;87.44;100245.69;6287831;20;3532545;-42
2022/01/02 10:46:07;;;;;;;;;14.00;13.50;;;;;11.77;87.91;100243.44;6319745;20;2787863;-42
2022/01/02 10:48:43;;;;;;;;;11.67;11.67;;;;;11.82;87.18;100246.72;6289014;20;2789943;-41
2022/01/02 10:51:23;;;;;;;;;11.20;9.80;;;;;12.11;86.84;100229.84;6337224;20;2770067;-41
2022/01/02 10:53:56;;;;;;;;;10.00;10.00;;;;;12.40;86.05;100233.50;6290822;20;2782560;-42
2022/01/02 10:56:31;;;;;;;;;10.00;7.40;;;;;11.97;86.46;100227.97;6313307;20;2754425;-42
2022/01/02 10:58:59;;;;;;;;;13.00;13.00;;;;;12.43;85.81;100226.09;6285839;20;2790881;-44
2022/01/02 11:01:28;;;;;;;;;11.50;9.00;;;;;12.14;85.38;100205.44;6286293;20;2771240;-42
2022/01/02 11:03:59;;;;;;;;;9.50;8.00;;;;;12.22;85.29;100205.88;6289632;20;2750284;-44
2022/01/02 11:06:36;;;;;;;;;8.00;6.67;;;;;12.32;83.58;100201.63;6289969;20;3445084;-41
2022/01/02 11:09:06;;;;;;;;;10.00;10.00;;;;;12.53;82.89;100199.47;6310229;20;2789858;-42
2022/01/02 11:11:35;;;;;;;;;9.00;7.00;;;;;12.41;82.15;100189.47;6311299;20;2748340;-43
2022/01/02 11:14:05;;;;;;;;;11.60;8.60;;;;;12.25;83.64;100184.13;6342302;20;2757555;-42
2022/01/02 11:16:38;;;;;;;;;10.40;8.40;;;;;12.41;82.60;100168.78;6341178;20;2758615;-42